createdAt,value
2022-09-28T00:00:06.607Z,99.90
2022-09-28T00:02:40.185Z,99.90
2022-09-28T00:05:12.699Z,99.90
2022-09-28T00:07:46.943Z,99.90
2022-09-28T00:10:22.306Z,99.90
2022-09-28T00:12:55.562Z,99.90
2022-09-28T00:15:27.450Z,99.90
2022-09-28T00:17:58.118Z,99.90
2022-09-28T00:20:28.885Z,99.90
2022-09-28T00:23:02.154Z,99.90
2022-09-28T00:25:33.115Z,99.90
2022-09-28T00:28:05.208Z,99.90
2022-09-28T00:30:35.969Z,99.90
2022-09-28T00:33:07.047Z,99.90
2022-09-28T00:35:37.848Z,99.90
2022-09-28T00:38:11.214Z,99.90
2022-09-28T00:40:42.061Z,99.90
2022-09-28T00:43:21.344Z,99.90
2022-09-28T00:45:58.739Z,99.90
2022-09-28T00:48:32.729Z,99.90
2022-09-28T00:51:08.308Z,99.90
2022-09-28T00:53:44.441Z,99.90
2022-09-28T00:56:19.216Z,99.90
2022-09-28T00:58:54.870Z,99.90
2022-09-28T01:01:26.943Z,99.90
2022-09-28T01:03:57.639Z,99.90
2022-09-28T01:06:31.056Z,99.90
2022-09-28T01:09:07.708Z,99.90
2022-09-28T01:11:40.822Z,99.90
2022-09-28T01:14:14.551Z,99.90
2022-09-28T01:16:52.582Z,99.90
2022-09-28T01:19:55.538Z,99.90
2022-09-28T01:22:44.892Z,99.90
2022-09-28T01:25:34.264Z,99.90
2022-09-28T01:28:12.342Z,99.90
2022-09-28T01:30:50.175Z,99.90
2022-09-28T01:33:26.456Z,99.90
2022-09-28T01:36:02.635Z,99.90
2022-09-28T01:38:39.896Z,99.90
2022-09-28T01:41:11.848Z,99.90
2022-09-28T01:43:51.099Z,99.90
2022-09-28T01:46:27.785Z,99.90
2022-09-28T01:49:00.955Z,99.90
2022-09-28T01:51:37.958Z,99.90
2022-09-28T01:54:14.848Z,99.90
2022-09-28T01:56:52.040Z,99.90
2022-09-28T01:59:31.052Z,99.90
2022-09-28T02:02:07.174Z,99.90
2022-09-28T02:04:43.765Z,99.90
2022-09-28T02:07:19.154Z,99.90
2022-09-28T02:09:55.457Z,99.90
2022-09-28T02:12:32.343Z,99.90
2022-09-28T02:15:15.160Z,99.90
2022-09-28T02:17:48.825Z,99.90
2022-09-28T02:20:20.170Z,99.90
2022-09-28T02:22:54.358Z,99.90
2022-09-28T02:25:31.029Z,99.90
2022-09-28T02:28:04.714Z,99.90
2022-09-28T02:30:41.616Z,99.90
2022-09-28T02:33:15.691Z,99.90
2022-09-28T02:35:46.684Z,99.90
2022-09-28T02:38:18.507Z,99.90
2022-09-28T02:41:00.336Z,99.90
2022-09-28T02:43:41.527Z,99.90
2022-09-28T02:46:24.895Z,99.90
2022-09-28T02:49:21.484Z,99.90
2022-09-28T02:52:05.878Z,99.90
2022-09-28T02:55:01.514Z,99.90
2022-09-28T02:57:42.146Z,99.90
2022-09-28T03:00:17.734Z,99.90
2022-09-28T03:02:59.543Z,99.90
2022-09-28T03:05:39.877Z,99.90
2022-09-28T03:08:16.752Z,99.90
2022-09-28T03:10:51.919Z,99.90
2022-09-28T03:13:25.608Z,99.90
2022-09-28T03:16:10.515Z,99.90
2022-09-28T03:18:44.776Z,99.90
2022-09-28T03:21:16.211Z,99.90
2022-09-28T03:23:47.917Z,99.90
2022-09-28T03:26:19.897Z,99.90
2022-09-28T03:28:50.803Z,99.90
2022-09-28T03:31:21.581Z,99.90
2022-09-28T03:33:55.724Z,99.90
2022-09-28T03:36:26.864Z,99.90
2022-09-28T03:38:57.822Z,99.90
2022-09-28T03:41:29.248Z,99.90
2022-09-28T03:44:00.384Z,99.90
2022-09-28T03:46:31.203Z,99.90
2022-09-28T03:49:04.581Z,99.90
2022-09-28T03:51:35.352Z,99.90
2022-09-28T03:54:06.422Z,99.90
2022-09-28T03:56:37.119Z,99.90
2022-09-28T03:59:08.010Z,99.90
2022-09-28T04:01:38.900Z,99.90
2022-09-28T04:04:14.300Z,99.90
2022-09-28T04:06:47.413Z,99.90
2022-09-28T04:09:18.946Z,99.90
2022-09-28T04:12:03.349Z,99.90
2022-09-28T04:14:35.237Z,99.90
2022-09-28T04:17:09.483Z,99.90
2022-09-28T04:19:43.220Z,99.90
2022-09-28T04:22:14.345Z,99.90
2022-09-28T04:24:46.561Z,99.90
2022-09-28T04:27:29.798Z,99.90
2022-09-28T04:30:01.555Z,99.90
2022-09-28T04:32:32.467Z,99.90
2022-09-28T04:35:07.062Z,99.90
2022-09-28T04:37:38.352Z,99.90
2022-09-28T04:40:10.312Z,99.90
2022-09-28T04:42:41.423Z,99.90
2022-09-28T04:45:13.426Z,99.90
2022-09-28T04:47:44.214Z,99.90
2022-09-28T04:50:17.941Z,99.90
2022-09-28T04:52:51.683Z,99.90
2022-09-28T04:55:22.653Z,99.90
2022-09-28T04:57:56.554Z,99.90
2022-09-28T05:00:27.375Z,99.90
2022-09-28T05:03:00.526Z,99.90
2022-09-28T05:05:36.402Z,99.90
2022-09-28T05:08:07.179Z,99.90
2022-09-28T05:10:40.483Z,99.90
2022-09-28T05:13:11.618Z,99.90
2022-09-28T05:15:44.024Z,99.90
2022-09-28T05:18:17.410Z,99.90
2022-09-28T05:20:50.775Z,99.90
2022-09-28T05:23:21.600Z,99.90
2022-09-28T05:25:55.716Z,99.90
2022-09-28T05:28:29.693Z,99.90
2022-09-28T05:31:02.795Z,99.90
2022-09-28T05:33:34.650Z,99.90
2022-09-28T05:36:12.543Z,99.90
2022-09-28T05:38:43.363Z,99.90
2022-09-28T05:41:18.239Z,99.90
2022-09-28T05:43:49.186Z,99.90
2022-09-28T05:46:21.834Z,99.90
2022-09-28T05:48:54.261Z,99.90
2022-09-28T05:51:27.721Z,99.90
2022-09-28T05:54:03.158Z,99.90
2022-09-28T05:56:36.609Z,99.90
2022-09-28T05:59:08.000Z,99.90
2022-09-28T06:01:38.981Z,99.90
2022-09-28T06:04:09.940Z,99.90
2022-09-28T06:06:43.391Z,99.90
2022-09-28T06:09:14.470Z,99.90
2022-09-28T06:11:48.351Z,99.90
2022-09-28T06:14:19.191Z,99.90
2022-09-28T06:16:50.438Z,99.90
2022-09-28T06:19:21.532Z,99.90
2022-09-28T06:21:55.064Z,99.90
2022-09-28T06:24:25.869Z,99.90
2022-09-28T06:26:56.731Z,99.90
2022-09-28T06:29:27.478Z,99.90
2022-09-28T06:31:58.239Z,99.90
2022-09-28T06:34:29.975Z,99.90
2022-09-28T06:37:04.739Z,99.90
2022-09-28T06:39:35.494Z,99.90
2022-09-28T06:42:06.572Z,99.90
2022-09-28T06:44:37.600Z,99.90
2022-09-28T06:47:08.547Z,99.90
2022-09-28T06:49:41.289Z,99.90
2022-09-28T06:52:14.842Z,99.90
2022-09-28T06:54:48.629Z,99.90
2022-09-28T06:57:19.479Z,99.90
2022-09-28T06:59:50.201Z,99.90
2022-09-28T07:02:22.777Z,99.90
2022-09-28T07:04:53.534Z,99.90
2022-09-28T07:07:27.137Z,99.90
2022-09-28T07:09:58.244Z,99.90
2022-09-28T07:12:32.295Z,99.90
2022-09-28T07:15:03.908Z,99.90
2022-09-28T07:17:41.284Z,99.90
2022-09-28T07:20:19.763Z,99.90
2022-09-28T07:22:56.415Z,99.90
2022-09-28T07:25:29.799Z,99.90
2022-09-28T07:28:02.497Z,99.90
2022-09-28T07:30:35.976Z,99.90
2022-09-28T07:33:10.690Z,99.90
2022-09-28T07:35:41.984Z,99.90
2022-09-28T07:38:15.530Z,99.90
2022-09-28T07:40:58.922Z,99.90
2022-09-28T07:43:33.334Z,99.90
2022-09-28T07:46:05.985Z,99.90
2022-09-28T07:48:36.900Z,99.90
2022-09-28T07:51:11.548Z,99.90
2022-09-28T07:53:45.870Z,99.90
2022-09-28T07:56:20.403Z,99.90
2022-09-28T07:58:51.748Z,99.90
2022-09-28T08:01:32.080Z,99.90
2022-09-28T08:04:02.993Z,99.90
2022-09-28T08:06:33.994Z,99.90
2022-09-28T08:09:07.348Z,99.90
2022-09-28T08:11:38.723Z,99.90
2022-09-28T08:14:11.034Z,99.90
2022-09-28T08:16:43.735Z,99.90
2022-09-28T08:19:14.755Z,99.90
2022-09-28T08:21:45.603Z,99.90
2022-09-28T08:24:20.656Z,99.90
2022-09-28T08:26:51.431Z,99.90
2022-09-28T08:29:22.346Z,99.90
2022-09-28T08:31:53.293Z,99.90
2022-09-28T08:34:24.086Z,99.90
2022-09-28T08:36:55.464Z,99.90
2022-09-28T08:39:29.466Z,99.90
2022-09-28T08:42:19.431Z,99.90
2022-09-28T08:44:54.610Z,99.90
2022-09-28T08:47:41.120Z,99.90
2022-09-28T08:50:19.335Z,99.90
2022-09-28T08:52:57.555Z,99.90
2022-09-28T08:55:34.588Z,99.90
2022-09-28T08:58:16.367Z,99.90
2022-09-28T09:00:50.446Z,99.90
2022-09-28T09:03:26.546Z,99.90
2022-09-28T09:06:06.265Z,99.90
2022-09-28T09:08:50.262Z,99.90
2022-09-28T09:11:35.493Z,99.90
2022-09-28T09:14:24.496Z,99.90
2022-09-28T09:17:03.272Z,99.90
2022-09-28T09:19:43.347Z,99.90
2022-09-28T09:22:20.382Z,99.90
2022-09-28T09:24:53.340Z,99.90
2022-09-28T09:27:53.596Z,99.90
2022-09-28T09:30:29.834Z,99.90
2022-09-28T09:33:24.130Z,99.90
2022-09-28T09:36:14.503Z,99.90
2022-09-28T09:38:58.704Z,99.90
2022-09-28T09:41:43.924Z,99.90
2022-09-28T09:44:44.950Z,99.90
2022-09-28T09:47:20.608Z,99.90
2022-09-28T09:49:58.403Z,99.90
2022-09-28T09:52:38.776Z,99.90
2022-09-28T09:55:23.363Z,99.90
2022-09-28T09:58:02.345Z,99.90
2022-09-28T10:00:38.058Z,99.90
2022-09-28T10:03:09.508Z,99.90
2022-09-28T10:05:41.734Z,99.90
2022-09-28T10:08:20.733Z,99.90
2022-09-28T10:10:54.309Z,99.90
2022-09-28T10:13:25.500Z,99.90
2022-09-28T10:15:59.907Z,99.90
2022-09-28T10:18:31.327Z,99.90
2022-09-28T10:21:02.341Z,99.90
2022-09-28T10:23:37.732Z,99.90
2022-09-28T10:26:13.563Z,99.90
2022-09-28T10:28:51.336Z,99.90
2022-09-28T10:31:43.588Z,98.90
2022-09-28T10:34:18.279Z,90.80
2022-09-28T10:36:58.837Z,90.00
2022-09-28T10:39:34.400Z,90.60
2022-09-28T10:42:10.742Z,90.80
2022-09-28T10:44:54.287Z,88.30
2022-09-28T10:47:31.336Z,84.20
2022-09-28T10:50:03.021Z,86.70
2022-09-28T10:52:37.068Z,86.20
2022-09-28T10:55:30.616Z,75.80
2022-09-28T10:58:02.601Z,77.60
2022-09-28T11:00:39.751Z,70.00
2022-09-28T11:03:21.749Z,64.30
2022-09-28T11:06:04.366Z,63.70
2022-09-28T11:08:41.621Z,59.10
2022-09-28T11:11:14.634Z,57.50
2022-09-28T11:13:50.650Z,65.40
2022-09-28T11:16:27.505Z,57.10
2022-09-28T11:19:06.957Z,59.10
2022-09-28T11:21:46.012Z,58.80
2022-09-28T11:24:27.277Z,56.50
2022-09-28T11:27:00.772Z,51.80
2022-09-28T11:29:40.448Z,50.00
2022-09-28T11:32:15.969Z,51.50
2022-09-28T11:34:59.670Z,50.10
2022-09-28T11:38:02.030Z,48.70
2022-09-28T11:40:54.543Z,44.70
2022-09-28T11:43:41.511Z,44.00
2022-09-28T11:46:28.182Z,43.30
2022-09-28T11:49:04.279Z,42.10
2022-09-28T11:51:44.290Z,40.30
2022-09-28T11:54:22.213Z,41.90
2022-09-28T11:56:54.339Z,42.60
2022-09-28T11:59:33.150Z,42.40
2022-09-28T12:02:14.976Z,46.20
2022-09-28T12:04:49.809Z,44.30
2022-09-28T12:07:28.888Z,42.70
2022-09-28T12:10:03.803Z,43.00
2022-09-28T12:12:41.328Z,42.80
2022-09-28T12:15:20.891Z,42.20
2022-09-28T12:17:55.580Z,39.60
2022-09-28T12:20:32.176Z,42.60
2022-09-28T12:23:10.552Z,41.40
2022-09-28T12:25:46.290Z,38.60
2022-09-28T12:28:27.662Z,36.30
2022-09-28T12:31:02.975Z,36.30
2022-09-28T12:33:33.808Z,37.40
2022-09-28T12:36:17.250Z,32.50
2022-09-28T12:39:31.007Z,31.10
2022-09-28T12:42:25.502Z,31.60
2022-09-28T12:45:17.433Z,33.70
2022-09-28T12:48:08.673Z,38.30
2022-09-28T12:50:57.113Z,37.80
2022-09-28T12:53:46.759Z,38.80
2022-09-28T12:56:32.196Z,32.50
2022-09-28T12:59:20.187Z,34.60
2022-09-28T13:02:30.072Z,34.00
2022-09-28T13:05:14.983Z,32.40
2022-09-28T13:07:53.931Z,34.50
2022-09-28T13:10:33.271Z,39.20
2022-09-28T13:13:29.196Z,40.30
2022-09-28T13:16:08.108Z,42.10
2022-09-28T13:18:48.501Z,43.70
2022-09-28T13:21:29.689Z,47.90
2022-09-28T13:24:27.819Z,50.80
2022-09-28T13:27:01.172Z,50.10
2022-09-28T13:32:12.657Z,59.30
2022-09-28T13:34:43.776Z,57.10
2022-09-28T13:37:25.367Z,54.80
2022-09-28T13:39:58.605Z,56.80
2022-09-28T13:43:00.655Z,54.90
2022-09-28T13:45:56.811Z,56.50
2022-09-28T13:48:44.450Z,53.70
2022-09-28T13:51:42.624Z,52.60
2022-09-28T13:54:50.349Z,51.80
2022-09-28T13:57:28.683Z,46.80
2022-09-28T14:00:11.657Z,49.60
2022-09-28T14:02:56.979Z,47.50
2022-09-28T14:05:49.265Z,46.80
2022-09-28T14:08:36.321Z,53.00
2022-09-28T14:11:43.775Z,40.70
2022-09-28T14:14:48.966Z,44.70
2022-09-28T14:17:50.454Z,40.40
2022-09-28T14:20:27.936Z,36.90
2022-09-28T14:23:20.997Z,37.60
2022-09-28T14:26:24.682Z,37.40
2022-09-28T14:29:10.548Z,34.20
2022-09-28T14:31:45.410Z,32.90
2022-09-28T14:34:48.800Z,35.40
2022-09-28T14:37:36.136Z,33.30
2022-09-28T14:40:31.642Z,31.70
2022-09-28T14:43:24.798Z,32.40
2022-09-28T14:46:31.774Z,34.10
2022-09-28T14:49:04.382Z,33.70
2022-09-28T14:52:06.297Z,36.20
2022-09-28T14:54:55.055Z,35.10
2022-09-28T14:57:30.368Z,34.10
2022-09-28T15:00:02.289Z,35.40
2022-09-28T15:02:36.086Z,34.90
2022-09-28T15:05:17.191Z,39.60
2022-09-28T15:07:53.964Z,39.30
2022-09-28T15:10:33.835Z,38.30
2022-09-28T15:13:07.062Z,36.20
2022-09-28T15:15:40.894Z,36.80
2022-09-28T15:18:33.803Z,38.20
2022-09-28T15:21:05.164Z,45.20
2022-09-28T15:23:44.488Z,46.50
2022-09-28T15:26:27.449Z,46.50
2022-09-28T15:28:58.677Z,47.60
2022-09-28T15:31:31.252Z,41.40
2022-09-28T15:34:14.706Z,40.70
2022-09-28T15:36:47.595Z,39.70
2022-09-28T15:39:24.032Z,38.30
2022-09-28T15:41:57.989Z,37.50
2022-09-28T15:44:33.891Z,36.90
2022-09-28T15:47:13.941Z,37.90
2022-09-28T15:49:57.560Z,37.70
2022-09-28T15:52:36.117Z,40.00
2022-09-28T15:55:23.680Z,40.50
2022-09-28T15:58:10.844Z,44.30
2022-09-28T16:00:42.413Z,44.50
2022-09-28T16:03:26.685Z,50.70
2022-09-28T16:06:11.464Z,52.60
2022-09-28T16:08:44.196Z,53.90
2022-09-28T16:11:26.231Z,54.30
2022-09-28T16:14:06.082Z,55.80
2022-09-28T16:16:43.323Z,54.90
2022-09-28T16:19:25.333Z,52.10
2022-09-28T16:22:00.822Z,50.30
2022-09-28T16:24:37.329Z,51.70
2022-09-28T16:27:25.933Z,53.20
2022-09-28T16:30:21.780Z,49.60
2022-09-28T16:32:56.469Z,49.60
2022-09-28T16:35:30.981Z,51.00
2022-09-28T16:38:14.394Z,51.40
2022-09-28T16:40:49.537Z,48.90
2022-09-28T16:43:27.259Z,48.50
2022-09-28T16:45:59.384Z,49.70
2022-09-28T16:48:31.964Z,49.00
2022-09-28T16:51:03.217Z,46.70
2022-09-28T16:53:46.557Z,48.70
2022-09-28T16:56:18.536Z,48.50
2022-09-28T16:58:52.293Z,45.80
2022-09-28T17:01:24.283Z,44.30
2022-09-28T17:03:55.462Z,44.30
2022-09-28T17:06:27.415Z,44.30
2022-09-28T17:09:00.180Z,45.10
2022-09-28T17:11:31.125Z,45.10
2022-09-28T17:14:06.521Z,44.20
2022-09-28T17:19:33.268Z,44.20
2022-09-28T17:22:04.436Z,45.10
2022-09-28T17:24:35.780Z,44.40
2022-09-28T17:27:11.578Z,46.30
2022-09-28T17:29:44.883Z,45.30
2022-09-28T17:32:21.306Z,47.10
2022-09-28T17:35:06.463Z,47.80
2022-09-28T17:37:43.364Z,48.60
2022-09-28T17:40:20.693Z,48.80
2022-09-28T17:42:55.191Z,48.30
2022-09-28T17:45:31.673Z,47.50
2022-09-28T17:48:03.468Z,48.60
2022-09-28T17:50:36.061Z,49.70
2022-09-28T17:53:07.341Z,49.40
2022-09-28T17:55:40.229Z,48.80
2022-09-28T17:58:21.575Z,49.00
2022-09-28T18:00:55.366Z,49.80
2022-09-28T18:03:27.897Z,50.60
2022-09-28T18:06:04.954Z,52.00
2022-09-28T18:08:36.459Z,52.40
2022-09-28T18:11:07.710Z,53.70
2022-09-28T18:13:42.359Z,56.30
2022-09-28T18:16:17.503Z,60.00
2022-09-28T18:18:50.656Z,59.90
2022-09-28T18:21:21.545Z,56.20
2022-09-28T18:23:52.797Z,54.20
2022-09-28T18:26:23.743Z,55.00
2022-09-28T18:28:57.671Z,56.20
2022-09-28T18:31:34.190Z,56.20
2022-09-28T18:34:05.826Z,55.50
2022-09-28T18:36:37.915Z,55.50
2022-09-28T18:39:08.733Z,55.80
2022-09-28T18:41:39.639Z,57.00
2022-09-28T18:44:10.589Z,53.70
2022-09-28T18:46:45.121Z,54.70
2022-09-28T18:49:16.297Z,54.80
2022-09-28T18:51:50.049Z,55.30
2022-09-28T18:54:20.947Z,55.60
2022-09-28T18:56:52.205Z,54.90
2022-09-28T18:59:23.251Z,56.30
2022-09-28T19:02:01.789Z,57.40
2022-09-28T19:04:35.121Z,58.30
2022-09-28T19:07:09.101Z,57.60
2022-09-28T19:09:44.002Z,60.60
2022-09-28T19:12:17.591Z,61.70
2022-09-28T19:14:48.477Z,63.20
2022-09-28T19:17:22.226Z,68.40
2022-09-28T19:19:54.412Z,71.30
2022-09-28T19:22:28.898Z,73.50
2022-09-28T19:24:59.992Z,71.10
2022-09-28T19:27:33.598Z,71.60
2022-09-28T19:30:04.484Z,74.10
2022-09-28T19:32:37.965Z,88.50
2022-09-28T19:35:09.950Z,90.30
2022-09-28T19:37:41.038Z,89.50
2022-09-28T19:40:12.652Z,92.00
2022-09-28T19:42:44.488Z,97.60
2022-09-28T19:45:15.632Z,98.70
2022-09-28T19:47:55.145Z,99.90
2022-09-28T19:50:29.572Z,98.60
2022-09-28T19:53:02.030Z,98.70
2022-09-28T19:55:39.194Z,97.20
2022-09-28T19:58:12.561Z,99.90
2022-09-28T20:00:53.064Z,99.70
2022-09-28T20:03:26.677Z,98.20
2022-09-28T20:06:00.120Z,99.30
2022-09-28T20:08:34.036Z,98.30
2022-09-28T20:11:06.050Z,99.30
2022-09-28T20:13:39.535Z,97.20
2022-09-28T20:16:12.300Z,99.90
2022-09-28T20:18:51.967Z,99.40
2022-09-28T20:21:26.793Z,98.70
2022-09-28T20:23:58.202Z,99.30
2022-09-28T20:26:29.995Z,93.30
2022-09-28T20:29:00.807Z,94.10
2022-09-28T20:31:31.802Z,93.70
2022-09-28T20:34:05.507Z,82.70
2022-09-28T20:36:37.162Z,89.80
2022-09-28T20:39:07.943Z,84.20
2022-09-28T20:41:39.880Z,88.20
2022-09-28T20:44:12.429Z,86.20
2022-09-28T20:46:44.726Z,90.40
2022-09-28T20:49:20.117Z,90.40
2022-09-28T20:51:51.060Z,90.80
2022-09-28T20:54:23.047Z,90.80
2022-09-28T20:56:53.888Z,95.00
2022-09-28T20:59:26.512Z,97.00
2022-09-28T21:01:57.616Z,94.10
2022-09-28T21:04:31.430Z,95.50
2022-09-28T21:07:02.523Z,97.10
2022-09-28T21:09:33.302Z,99.00
2022-09-28T21:12:07.439Z,96.30
2022-09-28T21:14:38.246Z,99.90
2022-09-28T21:17:09.277Z,99.90
2022-09-28T21:19:42.884Z,99.90
2022-09-28T21:22:14.197Z,99.90
2022-09-28T21:24:44.962Z,99.90
2022-09-28T21:27:15.868Z,99.90
2022-09-28T21:29:46.644Z,99.90
2022-09-28T21:32:17.407Z,99.90
2022-09-28T21:34:51.025Z,99.90
2022-09-28T21:37:22.991Z,99.90
2022-09-28T21:39:54.052Z,99.90
2022-09-28T21:42:28.838Z,99.90
2022-09-28T21:45:00.864Z,99.90
2022-09-28T21:47:34.993Z,99.90
2022-09-28T21:50:09.493Z,99.90
2022-09-28T21:52:40.197Z,99.90
2022-09-28T21:55:13.549Z,99.90
2022-09-28T21:57:44.294Z,99.90
2022-09-28T22:00:16.469Z,99.90
2022-09-28T22:02:48.244Z,99.90
2022-09-28T22:05:22.163Z,99.90
2022-09-28T22:07:54.697Z,99.90
2022-09-28T22:10:26.461Z,99.90
2022-09-28T22:13:02.482Z,99.90
2022-09-28T22:15:35.713Z,99.90
2022-09-28T22:18:09.232Z,99.90
2022-09-28T22:20:44.212Z,99.90
2022-09-28T22:23:15.419Z,99.90
2022-09-28T22:25:46.469Z,99.90
2022-09-28T22:28:17.375Z,99.90
2022-09-28T22:30:48.123Z,99.90
2022-09-28T22:33:19.146Z,99.90
2022-09-28T22:35:52.926Z,99.90
2022-09-28T22:38:25.454Z,99.90
2022-09-28T22:40:58.532Z,99.90
2022-09-28T22:43:30.930Z,99.90
2022-09-28T22:46:06.101Z,99.90
2022-09-28T22:48:39.977Z,99.90
2022-09-28T22:51:14.499Z,99.90
2022-09-28T22:53:45.773Z,99.90
2022-09-28T22:56:18.937Z,99.90
2022-09-28T22:58:50.292Z,99.90
2022-09-28T23:01:23.375Z,99.90
2022-09-28T23:03:55.639Z,99.90
2022-09-28T23:06:30.968Z,99.90
2022-09-28T23:09:02.216Z,99.90
2022-09-28T23:11:33.323Z,99.90
2022-09-28T23:14:04.134Z,99.90
2022-09-28T23:16:35.000Z,99.90
2022-09-28T23:19:07.612Z,99.90
2022-09-28T23:21:41.204Z,99.90
2022-09-28T23:24:13.608Z,99.90
2022-09-28T23:26:44.709Z,99.90
2022-09-28T23:29:15.450Z,99.90
2022-09-28T23:31:48.734Z,99.90
2022-09-28T23:34:21.714Z,99.90
2022-09-28T23:36:57.363Z,99.90
2022-09-28T23:39:31.183Z,99.90
2022-09-28T23:42:04.950Z,99.90
2022-09-28T23:44:35.910Z,99.90
2022-09-28T23:47:07.767Z,99.90
2022-09-28T23:49:38.678Z,99.90
2022-09-28T23:52:12.086Z,99.90
2022-09-28T23:54:43.282Z,99.90
2022-09-28T23:57:14.199Z,99.90
2022-09-28T23:59:45.065Z,99.90
